CheckWX is a tool to help pilots better visualize weather data.  It is not intended as a substitute for an official pre-flight weather briefing.

15:16:46 UTC

KISQ METAR
Schoolcraft County Airport
Manistique, Michigan, USA
Current

21 mins ago

KISQ 201456Z AUTO 36015G19KT 10SM SCT018 OVC060 08/04 A2996 RMK AO2 T00760044
Observed
May-20 @ 14:56 UTC
Wind
  • 360° at 15 KTS
  • Gusting to 19 KTS
Visibility
10 SM
Flight Rules
VFR
Cloud Levels
  • Scattered at 1,800' AGL
  • Overcast at 6,000' AGL
Temperature
C / 46°F
Dewpoint
C / 39°F
Humidity
76%
Altimeter
29.96" Hg
Pressure
1014.52 hPa
Previous

22 mins ago

KISQ 201455Z AUTO 35015G19KT 10SM SCT018 OVC060 08/05 A2996 RMK AO2 T00750045
Observed
May-20 @ 14:55 UTC
Wind
  • 350° at 15 KTS
  • Gusting to 19 KTS
Visibility
10 SM
Flight Rules
VFR
Cloud Levels
  • Scattered at 1,800' AGL
  • Overcast at 6,000' AGL
Temperature
C / 46°F
Dewpoint
C / 41°F
Humidity
82%
Altimeter
29.96" Hg
Pressure
1014.52 hPa
Previous

41 mins ago

KISQ 201436Z AUTO 35015G20KT 10SM SCT016 SCT050 OVC060 07/04 A2995 RMK AO2 T00680042
Observed
May-20 @ 14:36 UTC
Wind
  • 350° at 15 KTS
  • Gusting to 20 KTS
Visibility
10 SM
Flight Rules
VFR
Cloud Levels
  • Scattered at 1,600' AGL
  • Scattered at 5,000' AGL
  • Overcast at 6,000' AGL
Temperature
C / 45°F
Dewpoint
C / 39°F
Humidity
81%
Altimeter
29.95" Hg
Pressure
1014.22 hPa